createdAt,value
2022-09-11T00:01:07.508Z,9.88
2022-09-11T00:03:35.089Z,9.20
2022-09-11T00:06:08.199Z,10.48
2022-09-11T00:08:35.218Z,9.93
2022-09-11T00:11:08.411Z,11.00
2022-09-11T00:13:37.031Z,11.38
2022-09-11T00:16:06.416Z,10.82
2022-09-11T00:18:37.265Z,11.38
2022-09-11T00:21:07.902Z,12.00
2022-09-11T00:23:35.309Z,11.57
2022-09-11T00:26:03.516Z,13.05
2022-09-11T00:28:30.572Z,12.45
2022-09-11T00:31:00.253Z,12.15
2022-09-11T00:33:27.982Z,12.05
2022-09-11T00:35:58.414Z,11.25
2022-09-11T00:38:29.571Z,11.05
2022-09-11T00:40:58.349Z,11.40
2022-09-11T00:43:26.534Z,12.18
2022-09-11T00:45:57.705Z,11.45
2022-09-11T00:48:27.505Z,11.23
2022-09-11T00:50:56.291Z,12.95
2022-09-11T00:53:25.251Z,11.45
2022-09-11T00:55:57.530Z,10.50
2022-09-11T00:58:27.876Z,11.18
2022-09-11T01:00:56.689Z,12.65
2022-09-11T01:03:26.023Z,12.75
2022-09-11T01:05:54.628Z,12.68
2022-09-11T01:08:22.794Z,12.38
2022-09-11T01:11:19.709Z,11.02
2022-09-11T01:13:52.191Z,12.40
2022-09-11T01:16:53.150Z,12.30
2022-09-11T01:19:46.454Z,12.87
2022-09-11T01:22:21.048Z,11.68
2022-09-11T01:24:54.109Z,12.77
2022-09-11T01:27:47.167Z,11.23
2022-09-11T01:30:16.289Z,13.25
2022-09-11T01:33:13.433Z,12.05
2022-09-11T01:35:53.716Z,12.25
2022-09-11T01:38:34.074Z,13.88
2022-09-11T01:41:16.378Z,12.35
2022-09-11T01:43:51.477Z,14.15
2022-09-11T01:46:22.852Z,13.25
2022-09-11T01:49:15.417Z,13.63
2022-09-11T01:51:42.144Z,14.73
2022-09-11T01:54:16.988Z,15.43
2022-09-11T01:56:51.978Z,16.08
2022-09-11T01:59:27.850Z,16.25
2022-09-11T02:02:07.690Z,16.73
2022-09-11T02:04:41.140Z,17.63
2022-09-11T02:07:16.976Z,16.67
2022-09-11T02:09:51.174Z,18.20
2022-09-11T02:12:21.347Z,18.73
2022-09-11T02:14:50.394Z,17.50
2022-09-11T02:17:40.827Z,16.95
2022-09-11T02:20:09.253Z,18.13
2022-09-11T02:22:36.346Z,18.27
2022-09-11T02:25:04.238Z,19.17
2022-09-11T02:27:31.922Z,18.08
2022-09-11T02:30:00.950Z,18.00
2022-09-11T02:32:32.649Z,19.00
2022-09-11T02:35:00.031Z,17.67
2022-09-11T02:37:31.275Z,17.88
2022-09-11T02:40:06.972Z,17.20
2022-09-11T02:43:06.836Z,19.60
2022-09-11T02:45:58.593Z,21.73
2022-09-11T02:48:52.494Z,19.02
2022-09-11T02:51:28.946Z,20.33
2022-09-11T02:54:15.996Z,18.77
2022-09-11T02:57:04.036Z,20.45
2022-09-11T02:59:37.403Z,21.98
2022-09-11T03:02:10.358Z,25.50
2022-09-11T03:04:37.652Z,24.15
2022-09-11T03:07:04.494Z,26.85
2022-09-11T03:09:31.337Z,25.80
2022-09-11T03:12:05.378Z,25.65
2022-09-11T03:14:35.843Z,26.65
2022-09-11T03:17:04.798Z,27.15
2022-09-11T03:19:31.704Z,26.05
2022-09-11T03:21:58.413Z,29.17
2022-09-11T03:24:26.338Z,28.10
2022-09-11T03:26:53.085Z,26.25
2022-09-11T03:29:19.778Z,25.63
2022-09-11T03:31:47.295Z,26.48
2022-09-11T03:34:14.479Z,27.23
2022-09-11T03:36:41.224Z,25.85
2022-09-11T03:39:07.854Z,27.08
2022-09-11T03:41:35.993Z,26.65
2022-09-11T03:44:04.886Z,24.75
2022-09-11T03:46:32.977Z,24.05
2022-09-11T03:48:59.775Z,26.15
2022-09-11T03:51:26.695Z,27.05
2022-09-11T03:53:54.346Z,27.23
2022-09-11T03:56:21.096Z,29.08
2022-09-11T03:58:48.527Z,27.90
2022-09-11T04:01:18.968Z,27.15
2022-09-11T04:03:46.198Z,25.40
2022-09-11T04:06:21.463Z,26.48
2022-09-11T04:08:49.297Z,24.58
2022-09-11T04:11:16.492Z,24.58
2022-09-11T04:13:44.365Z,26.20
2022-09-11T04:16:17.442Z,23.63
2022-09-11T04:18:47.363Z,28.17
2022-09-11T04:21:17.075Z,27.40
2022-09-11T04:23:45.702Z,26.98
2022-09-11T04:26:15.693Z,27.95
2022-09-11T04:28:43.862Z,25.13
2022-09-11T04:31:14.644Z,26.75
2022-09-11T04:33:41.936Z,29.52
2022-09-11T04:36:11.243Z,27.98
2022-09-11T04:38:40.651Z,27.02
2022-09-11T04:41:11.524Z,29.20
2022-09-11T04:43:39.589Z,28.67
2022-09-11T04:46:15.316Z,28.30
2022-09-11T04:49:03.610Z,27.65
2022-09-11T04:51:34.726Z,28.13
2022-09-11T04:54:02.692Z,28.83
2022-09-11T04:56:37.743Z,27.55
2022-09-11T04:59:09.645Z,27.15
2022-09-11T05:01:37.889Z,27.92
2022-09-11T05:04:05.023Z,26.10
2022-09-11T05:06:32.350Z,25.38
2022-09-11T05:09:07.273Z,25.10
2022-09-11T05:11:36.293Z,25.88
2022-09-11T05:14:03.094Z,24.88
2022-09-11T05:16:34.611Z,22.50
2022-09-11T05:19:03.841Z,24.45
2022-09-11T05:21:33.254Z,22.33
2022-09-11T05:24:01.664Z,24.35
2022-09-11T05:26:33.151Z,24.20
2022-09-11T05:29:13.699Z,22.25
2022-09-11T05:31:46.012Z,21.13
2022-09-11T05:34:15.506Z,21.77
2022-09-11T05:36:42.231Z,21.48
2022-09-11T05:39:10.464Z,21.52
2022-09-11T05:41:37.959Z,21.50
2022-09-11T05:44:04.681Z,21.90
2022-09-11T05:46:33.331Z,20.63
2022-09-11T05:49:02.646Z,21.52
2022-09-11T05:51:29.626Z,20.48
2022-09-11T05:53:58.587Z,19.30
2022-09-11T05:56:28.085Z,19.40
2022-09-11T05:58:58.658Z,18.48
2022-09-11T06:01:34.010Z,17.58
2022-09-11T06:04:12.677Z,19.88
2022-09-11T06:06:42.006Z,19.23
2022-09-11T06:09:08.720Z,19.65
2022-09-11T06:11:35.722Z,17.13
2022-09-11T06:14:03.412Z,17.77
2022-09-11T06:16:31.689Z,17.42
2022-09-11T06:19:07.603Z,18.60
2022-09-11T06:21:34.716Z,17.80
2022-09-11T06:24:10.749Z,17.08
2022-09-11T06:26:37.583Z,17.33
2022-09-11T06:29:04.228Z,16.48
2022-09-11T06:31:35.210Z,16.03
2022-09-11T06:34:01.848Z,17.08
2022-09-11T06:36:32.521Z,15.73
2022-09-11T06:39:02.949Z,16.80
2022-09-11T06:41:31.856Z,14.90
2022-09-11T06:44:04.972Z,17.13
2022-09-11T06:46:31.817Z,15.75
2022-09-11T06:49:00.437Z,15.80
2022-09-11T06:51:28.422Z,15.35
2022-09-11T06:53:58.332Z,15.88
2022-09-11T06:56:30.383Z,16.77
2022-09-11T06:58:57.081Z,15.52
2022-09-11T07:01:25.598Z,15.43
2022-09-11T07:03:59.591Z,15.38
2022-09-11T07:06:28.720Z,15.43
2022-09-11T07:09:02.546Z,14.85
2022-09-11T07:11:43.634Z,15.60
2022-09-11T07:14:10.705Z,15.13
2022-09-11T07:16:40.435Z,13.50
2022-09-11T07:19:10.643Z,14.55
2022-09-11T07:21:38.893Z,14.50
2022-09-11T07:24:07.015Z,15.10
2022-09-11T07:26:37.759Z,15.43
2022-09-11T07:29:12.652Z,15.93
2022-09-11T07:31:39.388Z,15.27
2022-09-11T07:34:06.768Z,16.38
2022-09-11T07:36:35.592Z,16.77
2022-09-11T07:39:06.130Z,15.68
2022-09-11T07:41:43.464Z,14.88
2022-09-11T07:44:16.280Z,16.63
2022-09-11T07:46:42.927Z,15.45
2022-09-11T07:49:11.756Z,15.32
2022-09-11T07:51:41.640Z,16.65
2022-09-11T07:54:10.548Z,16.13
2022-09-11T07:56:38.958Z,16.38
2022-09-11T07:59:08.706Z,16.48
2022-09-11T08:01:38.210Z,15.18
2022-09-11T08:04:11.844Z,16.00
2022-09-11T08:06:40.398Z,16.15
2022-09-11T08:09:15.706Z,16.30
2022-09-11T08:11:48.968Z,15.63
2022-09-11T08:14:17.907Z,16.05
2022-09-11T08:16:48.250Z,16.63
2022-09-11T08:19:18.512Z,16.88
2022-09-11T08:21:49.187Z,16.10
2022-09-11T08:24:18.347Z,16.83
2022-09-11T08:26:48.740Z,15.43
2022-09-11T08:29:18.190Z,15.60
2022-09-11T08:31:45.374Z,15.30
2022-09-11T08:34:13.052Z,16.92
2022-09-11T08:36:39.846Z,16.90
2022-09-11T08:39:08.989Z,15.90
2022-09-11T08:41:48.787Z,16.00
2022-09-11T08:44:27.362Z,15.35
2022-09-11T08:47:07.357Z,16.60
2022-09-11T08:49:43.255Z,15.45
2022-09-11T08:52:13.768Z,15.73
2022-09-11T08:54:42.470Z,15.43
2022-09-11T08:57:40.749Z,15.13
2022-09-11T09:00:19.706Z,15.85
2022-09-11T09:03:16.755Z,16.10
2022-09-11T09:05:58.993Z,14.93
2022-09-11T09:08:53.390Z,16.05
2022-09-11T09:11:53.332Z,15.45
2022-09-11T09:14:31.266Z,15.57
2022-09-11T09:17:01.467Z,14.23
2022-09-11T09:19:49.762Z,14.80
2022-09-11T09:22:23.190Z,14.45
2022-09-11T09:24:53.587Z,13.50
2022-09-11T09:27:33.979Z,13.93
2022-09-11T09:30:06.920Z,13.00
2022-09-11T09:32:42.198Z,12.95
2022-09-11T09:35:45.002Z,12.90
2022-09-11T09:38:21.821Z,12.75
2022-09-11T09:40:59.557Z,12.52
2022-09-11T09:44:01.159Z,10.60
2022-09-11T09:46:41.999Z,12.20
2022-09-11T09:49:16.392Z,11.18
2022-09-11T09:51:43.332Z,10.27
2022-09-11T09:54:16.491Z,9.95
2022-09-11T09:56:49.413Z,10.85
2022-09-11T09:59:22.428Z,9.38
2022-09-11T10:01:51.674Z,9.20
2022-09-11T10:04:27.123Z,10.52
2022-09-11T10:07:05.694Z,9.52
2022-09-11T10:09:33.131Z,9.77
2022-09-11T10:12:03.521Z,8.95
2022-09-11T10:14:52.073Z,8.52
2022-09-11T10:17:29.472Z,9.15
2022-09-11T10:20:13.243Z,9.05
2022-09-11T10:22:40.041Z,8.52
2022-09-11T10:25:14.166Z,8.43
2022-09-11T10:28:08.884Z,8.68
2022-09-11T10:30:39.171Z,7.72
2022-09-11T10:33:16.742Z,7.53
2022-09-11T10:35:55.060Z,7.72
2022-09-11T10:38:29.465Z,7.70
2022-09-11T10:41:09.882Z,7.15
2022-09-11T10:44:11.062Z,7.63
2022-09-11T10:46:42.271Z,7.65
2022-09-11T10:49:15.400Z,8.38
2022-09-11T10:51:56.886Z,8.02
2022-09-11T10:54:35.873Z,6.97
2022-09-11T10:57:22.466Z,7.53
2022-09-11T11:00:08.640Z,6.65
2022-09-11T11:02:39.860Z,6.47
2022-09-11T11:05:21.570Z,7.10
2022-09-11T11:08:03.229Z,7.55
2022-09-11T11:10:43.079Z,7.97
2022-09-11T11:13:39.111Z,8.57
2022-09-11T11:16:25.612Z,7.00
2022-09-11T11:19:12.469Z,7.47
2022-09-11T11:22:00.246Z,7.00
2022-09-11T11:24:41.504Z,7.07
2022-09-11T11:27:46.068Z,7.10
2022-09-11T11:30:29.988Z,7.53
2022-09-11T11:33:17.268Z,7.38
2022-09-11T11:36:07.000Z,7.40
2022-09-11T11:39:00.540Z,6.32
2022-09-11T11:41:35.392Z,7.30
2022-09-11T11:44:03.940Z,7.07
2022-09-11T11:46:38.768Z,6.28
2022-09-11T11:49:12.431Z,6.38
2022-09-11T11:51:48.257Z,6.18
2022-09-11T11:54:23.704Z,6.40
2022-09-11T11:56:56.330Z,6.55
2022-09-11T11:59:31.152Z,7.03
2022-09-11T12:02:09.637Z,6.20
2022-09-11T12:04:54.056Z,6.28
2022-09-11T12:07:32.509Z,6.70
2022-09-11T12:10:01.435Z,6.40
2022-09-11T12:12:34.516Z,5.88
2022-09-11T12:15:22.966Z,5.60
2022-09-11T12:18:06.918Z,7.47
2022-09-11T12:20:41.738Z,6.68
2022-09-11T12:23:31.014Z,6.78
2022-09-11T12:26:17.050Z,6.60
2022-09-11T12:28:44.229Z,6.10
2022-09-11T12:31:13.269Z,6.03
2022-09-11T12:33:48.765Z,5.65
2022-09-11T12:36:24.570Z,5.93
2022-09-11T12:38:59.963Z,6.30
2022-09-11T12:41:35.478Z,5.43
2022-09-11T12:44:04.701Z,5.32
2022-09-11T12:46:31.293Z,5.60
2022-09-11T12:49:21.574Z,4.90
2022-09-11T12:51:59.463Z,3.50
2022-09-11T12:54:37.786Z,4.50
2022-09-11T12:57:09.063Z,3.92
2022-09-11T12:59:42.520Z,3.95
2022-09-11T13:02:39.395Z,4.78
2022-09-11T13:05:17.470Z,3.70
2022-09-11T13:07:47.741Z,3.58
2022-09-11T13:10:33.960Z,3.35
2022-09-11T13:13:07.270Z,3.45
2022-09-11T13:15:40.936Z,3.55
2022-09-11T13:18:26.010Z,3.33
2022-09-11T13:21:03.347Z,3.40
2022-09-11T13:23:30.219Z,3.60
2022-09-11T13:25:58.746Z,3.40
2022-09-11T13:28:28.450Z,3.83
2022-09-11T13:31:00.374Z,3.17
2022-09-11T13:33:29.298Z,4.35
2022-09-11T13:36:02.471Z,3.17
2022-09-11T13:38:37.546Z,3.40
2022-09-11T13:41:13.329Z,3.25
2022-09-11T13:43:46.883Z,2.78
2022-09-11T13:46:16.719Z,3.53
2022-09-11T13:48:44.917Z,3.05
2022-09-11T13:51:14.188Z,3.25
2022-09-11T13:53:43.317Z,3.25
2022-09-11T13:56:51.366Z,2.75
2022-09-11T13:59:26.879Z,2.70
2022-09-11T14:02:00.780Z,2.35
2022-09-11T14:04:29.300Z,2.40
2022-09-11T14:06:56.249Z,2.53
2022-09-11T14:09:23.199Z,2.67
2022-09-11T14:11:50.458Z,2.08
2022-09-11T14:14:28.225Z,2.88
2022-09-11T14:17:01.067Z,2.03
2022-09-11T14:19:32.450Z,2.75
2022-09-11T14:21:59.766Z,2.63
2022-09-11T14:24:28.469Z,2.83
2022-09-11T14:26:58.651Z,2.33
2022-09-11T14:29:33.247Z,1.77
2022-09-11T14:32:27.711Z,1.90
2022-09-11T14:34:54.484Z,2.20
2022-09-11T14:37:22.339Z,2.55
2022-09-11T14:39:56.703Z,2.38
2022-09-11T14:42:28.800Z,2.28
2022-09-11T14:44:56.006Z,2.15
2022-09-11T14:47:24.707Z,3.58
2022-09-11T14:49:53.726Z,2.30
2022-09-11T14:52:22.883Z,2.17
2022-09-11T14:54:49.555Z,2.58
2022-09-11T14:57:20.969Z,1.92
2022-09-11T14:59:47.889Z,2.05
2022-09-11T15:02:17.259Z,1.98
2022-09-11T15:04:44.512Z,1.95
2022-09-11T15:07:12.474Z,1.67
2022-09-11T15:09:40.145Z,1.92
2022-09-11T15:12:08.420Z,2.47
2022-09-11T15:14:55.839Z,2.17
2022-09-11T15:17:25.041Z,2.15
2022-09-11T15:19:52.653Z,2.20
2022-09-11T15:22:19.469Z,1.60
2022-09-11T15:24:48.750Z,2.30
2022-09-11T15:27:15.491Z,2.53
2022-09-11T15:29:42.509Z,2.33
2022-09-11T15:32:10.232Z,2.30
2022-09-11T15:34:38.702Z,2.58
2022-09-11T15:37:05.866Z,1.73
2022-09-11T15:39:33.863Z,2.13
2022-09-11T15:42:01.701Z,2.30
2022-09-11T15:44:28.888Z,1.83
2022-09-11T15:46:57.774Z,2.20
2022-09-11T15:49:25.407Z,2.17
2022-09-11T15:51:54.018Z,1.83
2022-09-11T15:54:23.189Z,1.92
2022-09-11T15:56:50.550Z,2.10
2022-09-11T15:59:17.246Z,1.70
2022-09-11T16:01:44.837Z,2.00
2022-09-11T16:04:19.237Z,2.20
2022-09-11T16:06:48.305Z,1.80
2022-09-11T16:09:20.007Z,1.67
2022-09-11T16:11:47.922Z,2.13
2022-09-11T16:14:25.837Z,1.60
2022-09-11T16:16:53.387Z,2.05
2022-09-11T16:19:22.080Z,2.17
2022-09-11T16:21:50.026Z,1.92
2022-09-11T16:24:17.093Z,2.10
2022-09-11T16:26:44.576Z,2.00
2022-09-11T16:29:14.635Z,1.98
2022-09-11T16:31:42.522Z,2.20
2022-09-11T16:34:10.155Z,2.17
2022-09-11T16:36:40.108Z,2.20
2022-09-11T16:39:08.914Z,1.95
2022-09-11T16:41:37.038Z,2.22
2022-09-11T16:44:05.248Z,1.70
2022-09-11T16:46:33.461Z,1.90
2022-09-11T16:49:02.201Z,2.00
2022-09-11T16:51:29.557Z,2.30
2022-09-11T16:53:56.345Z,1.60
2022-09-11T16:56:24.514Z,1.80
2022-09-11T16:58:51.595Z,2.15
2022-09-11T17:01:23.745Z,1.80
2022-09-11T17:03:53.012Z,2.30
2022-09-11T17:06:20.853Z,1.58
2022-09-11T17:08:50.594Z,2.03
2022-09-11T17:11:19.619Z,1.90
2022-09-11T17:13:46.687Z,2.08
2022-09-11T17:16:32.928Z,2.15
2022-09-11T17:19:00.383Z,2.13
2022-09-11T17:21:27.874Z,1.80
2022-09-11T17:23:55.913Z,2.10
2022-09-11T17:26:23.542Z,2.30
2022-09-11T17:28:51.749Z,2.42
2022-09-11T17:31:19.528Z,2.40
2022-09-11T17:33:47.815Z,2.30
2022-09-11T17:36:17.345Z,2.75
2022-09-11T17:38:46.357Z,2.47
2022-09-11T17:41:13.295Z,2.30
2022-09-11T17:43:40.675Z,2.72
2022-09-11T17:46:14.866Z,2.17
2022-09-11T17:48:42.975Z,2.40
2022-09-11T17:51:11.387Z,2.60
2022-09-11T17:53:41.394Z,2.72
2022-09-11T17:56:10.832Z,3.10
2022-09-11T17:58:38.064Z,2.60
2022-09-11T18:01:06.069Z,2.95
2022-09-11T18:03:34.324Z,3.10
2022-09-11T18:06:03.405Z,3.00
2022-09-11T18:08:32.814Z,3.20
2022-09-11T18:11:00.873Z,2.70
2022-09-11T18:13:34.542Z,2.60
2022-09-11T18:16:03.300Z,2.83
2022-09-11T18:18:30.637Z,3.58
2022-09-11T18:21:05.019Z,3.00
2022-09-11T18:23:31.696Z,3.13
2022-09-11T18:26:00.180Z,3.08
2022-09-11T18:28:27.608Z,3.60
2022-09-11T18:31:01.151Z,3.53
2022-09-11T18:33:27.914Z,3.35
2022-09-11T18:35:54.523Z,3.33
2022-09-11T18:38:21.207Z,3.40
2022-09-11T18:40:56.109Z,4.03
2022-09-11T18:43:22.830Z,4.03
2022-09-11T18:45:49.469Z,3.13
2022-09-11T18:48:16.685Z,3.20
2022-09-11T18:50:43.619Z,3.08
2022-09-11T18:53:10.273Z,3.08
2022-09-11T18:55:37.599Z,3.58
2022-09-11T18:58:05.652Z,3.38
2022-09-11T19:00:32.640Z,3.28
2022-09-11T19:03:00.249Z,3.47
2022-09-11T19:05:28.673Z,3.38
2022-09-11T19:08:00.096Z,3.45
2022-09-11T19:10:27.091Z,3.63
2022-09-11T19:12:54.133Z,3.70
2022-09-11T19:15:20.839Z,4.10
2022-09-11T19:17:48.895Z,3.92
2022-09-11T19:20:16.210Z,3.72
2022-09-11T19:22:42.906Z,3.40
2022-09-11T19:25:09.979Z,3.75
2022-09-11T19:27:38.024Z,4.05
2022-09-11T19:30:06.337Z,3.55
2022-09-11T19:32:33.263Z,4.18
2022-09-11T19:35:00.466Z,4.05
2022-09-11T19:37:28.209Z,3.90
2022-09-11T19:39:57.046Z,4.60
2022-09-11T19:42:23.832Z,4.15
2022-09-11T19:44:55.643Z,4.10
2022-09-11T19:47:24.868Z,4.55
2022-09-11T19:49:51.587Z,5.05
2022-09-11T19:52:18.310Z,5.85
2022-09-11T19:54:44.977Z,5.03
2022-09-11T19:57:11.676Z,5.25
2022-09-11T19:59:44.777Z,4.97
2022-09-11T20:02:11.754Z,4.55
2022-09-11T20:04:38.456Z,4.55
2022-09-11T20:07:05.468Z,4.50
2022-09-11T20:09:32.958Z,4.50
2022-09-11T20:12:01.210Z,4.72
2022-09-11T20:14:29.446Z,4.40
2022-09-11T20:16:56.075Z,4.03
2022-09-11T20:19:22.722Z,3.85
2022-09-11T20:21:49.354Z,3.80
2022-09-11T20:24:16.070Z,3.80
2022-09-11T20:26:42.950Z,4.00
2022-09-11T20:29:13.925Z,4.38
2022-09-11T20:31:47.455Z,4.00
2022-09-11T20:34:18.754Z,4.10
2022-09-11T20:36:46.316Z,4.40
2022-09-11T20:39:14.034Z,4.22
2022-09-11T20:41:41.155Z,4.47
2022-09-11T20:44:07.865Z,4.72
2022-09-11T20:46:34.680Z,4.60
2022-09-11T20:49:04.680Z,4.18
2022-09-11T20:51:32.790Z,4.47
2022-09-11T20:54:00.466Z,5.05
2022-09-11T20:56:27.987Z,4.72
2022-09-11T20:58:54.787Z,4.88
2022-09-11T21:01:35.898Z,4.25
2022-09-11T21:04:06.660Z,4.70
2022-09-11T21:06:36.634Z,4.68
2022-09-11T21:09:07.764Z,5.47
2022-09-11T21:11:39.765Z,4.18
2022-09-11T21:14:06.578Z,4.63
2022-09-11T21:16:36.973Z,4.75
2022-09-11T21:19:10.759Z,5.03
2022-09-11T21:21:41.984Z,4.35
2022-09-11T21:24:21.866Z,5.50
2022-09-11T21:26:52.480Z,4.28
2022-09-11T21:29:25.092Z,5.50
2022-09-11T21:31:52.979Z,4.90
2022-09-11T21:34:19.589Z,4.93
2022-09-11T21:36:46.200Z,5.30
2022-09-11T21:39:12.948Z,5.38
2022-09-11T21:41:39.730Z,4.90
2022-09-11T21:44:06.442Z,4.80
2022-09-11T21:46:33.945Z,4.57
2022-09-11T21:49:01.632Z,4.90
2022-09-11T21:51:28.406Z,4.95
2022-09-11T21:54:01.658Z,4.95
2022-09-11T21:56:31.438Z,5.55
2022-09-11T21:58:58.891Z,5.25
2022-09-11T22:01:26.957Z,5.32
2022-09-11T22:03:54.356Z,5.63
2022-09-11T22:06:23.655Z,5.70
2022-09-11T22:08:51.032Z,6.07
2022-09-11T22:11:18.168Z,5.60
2022-09-11T22:13:45.257Z,5.40
2022-09-11T22:16:14.639Z,5.38
2022-09-11T22:18:42.460Z,5.93
2022-09-11T22:21:10.388Z,6.38
2022-09-11T22:23:37.154Z,5.38
2022-09-11T22:26:08.656Z,5.57
2022-09-11T22:28:36.680Z,4.97
2022-09-11T22:31:07.996Z,4.97
2022-09-11T22:33:37.891Z,5.88
2022-09-11T22:36:13.156Z,5.97
2022-09-11T22:38:40.232Z,5.18
2022-09-11T22:41:07.448Z,6.13
2022-09-11T22:43:34.240Z,5.38
2022-09-11T22:46:01.261Z,5.78
2022-09-11T22:48:28.061Z,5.50
2022-09-11T22:50:56.884Z,4.95
2022-09-11T22:53:28.092Z,5.43
2022-09-11T22:55:55.065Z,5.47
2022-09-11T22:58:22.294Z,6.07
2022-09-11T23:00:51.719Z,6.75
2022-09-11T23:03:18.411Z,5.43
2022-09-11T23:06:03.882Z,5.85
2022-09-11T23:08:38.430Z,5.55
2022-09-11T23:11:05.953Z,6.00
2022-09-11T23:13:33.869Z,5.90
2022-09-11T23:16:00.827Z,5.57
2022-09-11T23:18:28.006Z,5.82
2022-09-11T23:20:58.375Z,6.15
2022-09-11T23:23:25.568Z,6.03
2022-09-11T23:25:52.379Z,6.10
2022-09-11T23:28:19.095Z,6.05
2022-09-11T23:30:45.710Z,6.25
2022-09-11T23:33:12.374Z,6.68
2022-09-11T23:35:39.833Z,6.13
2022-09-11T23:38:07.289Z,6.05
2022-09-11T23:40:34.516Z,6.63
2022-09-11T23:43:02.042Z,7.13
2022-09-11T23:45:29.162Z,7.72
2022-09-11T23:47:55.960Z,8.18
2022-09-11T23:50:22.833Z,8.80
2022-09-11T23:52:49.460Z,8.07
2022-09-11T23:55:17.596Z,8.00
2022-09-11T23:57:44.215Z,7.68
